createdAt,value
2023-03-11T00:00:46.759Z,97877.94
2023-03-11T00:03:16.715Z,97888.25
2023-03-11T00:05:45.145Z,97856.72
2023-03-11T00:08:17.148Z,97830.88
2023-03-11T00:10:46.173Z,97877.88
2023-03-11T00:13:15.961Z,97866.28
2023-03-11T00:15:46.990Z,97879.63
2023-03-11T00:18:14.182Z,97901.09
2023-03-11T00:20:44.755Z,97888.50
2023-03-11T00:23:13.904Z,97903.59
2023-03-11T00:25:43.727Z,97903.69
2023-03-11T00:28:11.189Z,97920.06
2023-03-11T00:30:40.373Z,97909.00
2023-03-11T00:33:08.220Z,97898.25
2023-03-11T00:35:35.422Z,97893.63
2023-03-11T00:38:07.022Z,97916.63
2023-03-11T00:40:35.915Z,97888.50
2023-03-11T00:43:03.698Z,97897.44
2023-03-11T00:45:31.632Z,97935.56
2023-03-11T00:47:58.937Z,97902.09
2023-03-11T00:50:30.478Z,97930.16
2023-03-11T00:52:58.374Z,97933.50
2023-03-11T00:55:31.742Z,97927.66
2023-03-11T00:58:02.635Z,97936.13
2023-03-11T01:00:31.303Z,97925.41
2023-03-11T01:03:00.254Z,97921.84
2023-03-11T01:05:31.438Z,97944.56
2023-03-11T01:07:59.019Z,97925.34
2023-03-11T01:10:26.502Z,97934.94
2023-03-11T01:12:53.698Z,97930.94
2023-03-11T01:15:29.140Z,97934.09
2023-03-11T01:17:56.155Z,97908.25
2023-03-11T01:20:23.751Z,97925.69
2023-03-11T01:22:50.842Z,97910.44
2023-03-11T01:25:20.105Z,97904.03
2023-03-11T01:27:47.237Z,97935.31
2023-03-11T01:30:18.854Z,97939.66
2023-03-11T01:32:46.092Z,97940.75
2023-03-11T01:35:15.987Z,97952.13
2023-03-11T01:37:43.055Z,97950.50
2023-03-11T01:40:18.236Z,97941.03
2023-03-11T01:42:45.164Z,97942.88
2023-03-11T01:45:38.258Z,97965.78
2023-03-11T01:48:05.335Z,97954.16
2023-03-11T01:50:38.808Z,97966.09
2023-03-11T01:53:06.188Z,97954.56
2023-03-11T01:55:34.976Z,97939.53
2023-03-11T01:58:06.453Z,97950.81
2023-03-11T02:00:34.399Z,97964.19
2023-03-11T02:03:07.456Z,97935.31
2023-03-11T02:05:35.412Z,97952.22
2023-03-11T02:08:03.089Z,97943.38
2023-03-11T02:10:31.065Z,97937.25
2023-03-11T02:12:58.283Z,97920.38
2023-03-11T02:15:26.009Z,97940.31
2023-03-11T02:17:56.261Z,97954.03
2023-03-11T02:21:13.739Z,97987.22
2023-03-11T02:24:11.479Z,97981.84
2023-03-11T02:26:55.451Z,97923.00
2023-03-11T02:29:25.038Z,97983.00
2023-03-11T02:31:52.388Z,97988.91
2023-03-11T02:34:27.353Z,97971.72
2023-03-11T02:36:54.236Z,97983.59
2023-03-11T02:39:45.734Z,97973.16
2023-03-11T02:42:28.213Z,97991.63
2023-03-11T02:45:14.612Z,97987.56
2023-03-11T02:47:41.615Z,97976.47
2023-03-11T02:50:12.675Z,97988.28
2023-03-11T02:52:39.870Z,97997.53
2023-03-11T02:55:09.994Z,97987.91
2023-03-11T02:57:36.893Z,98005.44
2023-03-11T03:00:11.176Z,98000.44
2023-03-11T03:02:38.115Z,97985.94
2023-03-11T03:05:06.123Z,97970.25
2023-03-11T03:07:33.100Z,97995.69
2023-03-11T03:10:07.721Z,97982.22
2023-03-11T03:12:34.559Z,97996.09
2023-03-11T03:15:01.401Z,97994.59
2023-03-11T03:17:28.386Z,98008.00
2023-03-11T03:19:55.273Z,98015.66
2023-03-11T03:22:24.135Z,98027.69
2023-03-11T03:24:51.016Z,98021.13
2023-03-11T03:27:17.813Z,98007.97
2023-03-11T03:29:44.642Z,98008.09
2023-03-11T03:32:11.594Z,98007.06
2023-03-11T03:34:38.422Z,97995.94
2023-03-11T03:37:05.262Z,98016.00
2023-03-11T03:39:33.601Z,98006.84
2023-03-11T03:42:00.484Z,98012.44
2023-03-11T03:44:27.851Z,98020.59
2023-03-11T03:46:54.747Z,98007.44
2023-03-11T03:49:21.629Z,98019.22
2023-03-11T03:51:48.448Z,98019.34
2023-03-11T03:54:15.631Z,98017.66
2023-03-11T03:56:42.465Z,98032.56
2023-03-11T03:59:09.281Z,98025.25
2023-03-11T04:01:36.244Z,98036.16
2023-03-11T04:04:03.108Z,98054.78
2023-03-11T04:06:29.941Z,98058.38
2023-03-11T04:08:56.826Z,98061.41
2023-03-11T04:11:23.707Z,98054.25
2023-03-11T04:13:50.573Z,98063.91
2023-03-11T04:16:21.489Z,98074.59
2023-03-11T04:18:48.956Z,98059.22
2023-03-11T04:21:15.973Z,98080.88
2023-03-11T04:23:43.064Z,98073.69
2023-03-11T04:26:10.168Z,98083.75
2023-03-11T04:28:37.063Z,98079.78
2023-03-11T04:31:04.513Z,98061.28
2023-03-11T04:33:32.171Z,98068.75
2023-03-11T04:35:59.096Z,98067.84
2023-03-11T04:38:25.991Z,98062.25
2023-03-11T04:40:52.830Z,98050.69
2023-03-11T04:43:19.700Z,98074.03
2023-03-11T04:45:50.686Z,98075.06
2023-03-11T04:48:17.562Z,98042.31
2023-03-11T04:50:44.486Z,98070.81
2023-03-11T04:53:11.285Z,98057.19
2023-03-11T04:55:38.124Z,98070.59
2023-03-11T04:58:05.264Z,98053.78
2023-03-11T05:00:32.221Z,98053.00
2023-03-11T05:02:59.319Z,98060.69
2023-03-11T05:05:26.160Z,98084.91
2023-03-11T05:07:52.964Z,98070.88
2023-03-11T05:10:22.358Z,98074.16
2023-03-11T05:12:52.956Z,98079.94
2023-03-11T05:15:20.212Z,98077.84
2023-03-11T05:17:47.521Z,98074.63
2023-03-11T05:20:15.865Z,98057.50
2023-03-11T05:22:43.076Z,98075.06
2023-03-11T05:25:10.226Z,98094.38
2023-03-11T05:27:37.160Z,98075.97
2023-03-11T05:30:04.722Z,98092.44
2023-03-11T05:32:31.666Z,98097.84
2023-03-11T05:34:58.549Z,98093.13
2023-03-11T05:37:25.431Z,98095.47
2023-03-11T05:39:52.984Z,98107.31
2023-03-11T05:42:21.441Z,98093.16
2023-03-11T05:44:48.526Z,98111.03
2023-03-11T05:47:17.574Z,98094.06
2023-03-11T05:49:44.469Z,98094.69
2023-03-11T05:52:11.280Z,98109.03
2023-03-11T05:54:38.100Z,98078.47
2023-03-11T05:57:05.014Z,98106.22
2023-03-11T05:59:32.629Z,98089.31
2023-03-11T06:01:59.485Z,98104.19
2023-03-11T06:04:26.829Z,98110.53
2023-03-11T06:06:53.992Z,98112.91
2023-03-11T06:09:20.796Z,98091.22
2023-03-11T06:11:47.668Z,98112.38
2023-03-11T06:14:15.144Z,98122.50
2023-03-11T06:16:42.293Z,98115.97
2023-03-11T06:19:09.503Z,98087.56
2023-03-11T06:21:36.461Z,98120.97
2023-03-11T06:24:03.444Z,98126.81
2023-03-11T06:26:30.346Z,98120.25
2023-03-11T06:28:57.216Z,98116.16
2023-03-11T06:31:27.131Z,98131.00
2023-03-11T06:33:56.017Z,98138.69
2023-03-11T06:36:23.770Z,98104.69
2023-03-11T06:38:53.643Z,98141.47
2023-03-11T06:41:21.059Z,98140.88
2023-03-11T06:43:47.901Z,98133.31
2023-03-11T06:46:23.681Z,98157.66
2023-03-11T06:48:53.295Z,98135.22
2023-03-11T06:51:21.484Z,98156.59
2023-03-11T06:53:54.829Z,98175.03
2023-03-11T06:56:23.214Z,98187.66
2023-03-11T06:58:50.620Z,98191.09
2023-03-11T07:01:24.919Z,98197.84
2023-03-11T07:03:52.622Z,98190.31
2023-03-11T07:06:26.093Z,98188.22
2023-03-11T07:08:53.995Z,98193.34
2023-03-11T07:11:26.568Z,98195.22
2023-03-11T07:13:55.258Z,98170.03
2023-03-11T07:16:25.815Z,98203.50
2023-03-11T07:18:56.038Z,98200.22
2023-03-11T07:21:23.888Z,98197.88
2023-03-11T07:23:55.788Z,98210.63
2023-03-11T07:26:24.500Z,98209.72
2023-03-11T07:28:52.813Z,98210.13
2023-03-11T07:31:24.605Z,98209.22
2023-03-11T07:33:52.131Z,98203.81
2023-03-11T07:36:22.954Z,98208.09
2023-03-11T07:38:55.347Z,98218.19
2023-03-11T07:41:22.246Z,98218.88
2023-03-11T07:43:49.090Z,98224.06
2023-03-11T07:46:18.525Z,98221.94
2023-03-11T07:48:46.302Z,98210.06
2023-03-11T07:51:15.122Z,98196.56
2023-03-11T07:53:42.285Z,98227.88
2023-03-11T07:56:12.323Z,98233.91
2023-03-11T07:58:40.377Z,98225.44
2023-03-11T08:01:17.453Z,98216.31
2023-03-11T08:03:50.086Z,98220.22
2023-03-11T08:06:21.799Z,98242.03
2023-03-11T08:08:51.508Z,98218.75
2023-03-11T08:11:20.620Z,98242.19
2023-03-11T08:13:48.347Z,98248.13
2023-03-11T08:16:20.320Z,98245.78
2023-03-11T08:18:49.257Z,98248.50
2023-03-11T08:21:26.407Z,98235.13
2023-03-11T08:23:58.529Z,98243.00
2023-03-11T08:26:25.862Z,98217.56
2023-03-11T08:28:52.720Z,98257.66
2023-03-11T08:31:27.499Z,98260.47
2023-03-11T08:34:01.780Z,98270.44
2023-03-11T08:36:29.446Z,98270.47
2023-03-11T08:38:56.357Z,98275.09
2023-03-11T08:41:23.321Z,98243.63
2023-03-11T08:43:52.152Z,98262.38
2023-03-11T08:46:30.487Z,98267.50
2023-03-11T08:49:01.079Z,98276.19
2023-03-11T08:51:30.543Z,98243.97
2023-03-11T08:53:58.349Z,98274.88
2023-03-11T08:56:25.634Z,98263.25
2023-03-11T08:58:52.752Z,98251.53
2023-03-11T09:01:20.370Z,98269.69
2023-03-11T09:03:47.593Z,98280.19
2023-03-11T09:06:16.446Z,98267.69
2023-03-11T09:08:45.593Z,98270.22
2023-03-11T09:11:15.392Z,98285.88
2023-03-11T09:13:42.999Z,98282.28
2023-03-11T09:16:16.345Z,98286.63
2023-03-11T09:18:43.790Z,98291.00
2023-03-11T09:21:11.407Z,98283.28
2023-03-11T09:23:38.628Z,98259.00
2023-03-11T09:26:05.733Z,98278.25
2023-03-11T09:28:32.993Z,98295.63
2023-03-11T09:30:59.944Z,98277.31
2023-03-11T09:33:26.846Z,98290.66
2023-03-11T09:35:53.777Z,98299.69
2023-03-11T09:38:20.728Z,98302.72
2023-03-11T09:40:57.442Z,98301.66
2023-03-11T09:43:41.110Z,98301.06
2023-03-11T09:46:24.630Z,98294.78
2023-03-11T09:49:15.827Z,98295.75
2023-03-11T09:52:15.503Z,98291.28
2023-03-11T09:54:54.815Z,98283.31
2023-03-11T09:57:30.845Z,98275.75
2023-03-11T09:59:59.914Z,98301.22
2023-03-11T10:02:27.812Z,98279.19
2023-03-11T10:05:07.671Z,98296.84
2023-03-11T10:07:40.465Z,98285.81
2023-03-11T10:10:34.550Z,98299.66
2023-03-11T10:13:18.020Z,98298.44
2023-03-11T10:15:52.872Z,98299.97
2023-03-11T10:19:12.001Z,98286.00
2023-03-11T10:21:52.868Z,98280.34
2023-03-11T10:24:36.316Z,98280.34
2023-03-11T10:27:16.225Z,98284.56
2023-03-11T10:29:58.376Z,98287.91
2023-03-11T10:33:19.533Z,98301.66
2023-03-11T10:35:51.911Z,98283.88
2023-03-11T10:38:23.541Z,98302.13
2023-03-11T10:40:55.554Z,98291.84
2023-03-11T10:43:32.186Z,98293.59
2023-03-11T10:45:59.716Z,98283.25
2023-03-11T10:48:28.566Z,98286.47
2023-03-11T10:51:10.529Z,98293.47
2023-03-11T10:53:47.372Z,98267.19
2023-03-11T10:56:38.170Z,98290.41
2023-03-11T10:59:21.910Z,98277.63
2023-03-11T11:02:17.891Z,98283.34
2023-03-11T11:04:45.270Z,98283.34
2023-03-11T11:07:29.276Z,98294.28
2023-03-11T11:10:17.655Z,98284.50
2023-03-11T11:12:56.879Z,98278.22
2023-03-11T11:15:32.638Z,98264.94
2023-03-11T11:18:36.335Z,98289.22
2023-03-11T11:21:08.616Z,98301.69
2023-03-11T11:23:44.065Z,98294.28
2023-03-11T11:26:24.750Z,98297.50
2023-03-11T11:29:09.588Z,98293.91
2023-03-11T11:31:42.544Z,98275.53
2023-03-11T11:34:34.633Z,98295.66
2023-03-11T11:37:04.722Z,98282.59
2023-03-11T11:39:51.800Z,98291.16
2023-03-11T11:42:24.787Z,98296.78
2023-03-11T11:45:07.301Z,98294.88
2023-03-11T11:47:36.712Z,98286.00
2023-03-11T11:50:26.511Z,98268.41
2023-03-11T11:53:02.465Z,98283.38
2023-03-11T11:55:30.994Z,98287.41
2023-03-11T11:57:58.216Z,98283.06
2023-03-11T12:00:50.222Z,98271.16
2023-03-11T12:03:41.442Z,98273.91
2023-03-11T12:06:27.235Z,98259.00
2023-03-11T12:09:17.304Z,98273.16
2023-03-11T12:11:50.195Z,98262.75
2023-03-11T12:14:21.841Z,98261.78
2023-03-11T12:17:03.933Z,98249.69
2023-03-11T12:19:50.865Z,98258.81
2023-03-11T12:22:51.661Z,98257.25
2023-03-11T12:25:36.476Z,98261.25
2023-03-11T12:28:20.419Z,98252.69
2023-03-11T12:31:00.734Z,98243.53
2023-03-11T12:33:37.105Z,98246.13
2023-03-11T12:36:05.938Z,98241.19
2023-03-11T12:38:47.610Z,98211.50
2023-03-11T12:41:14.316Z,98244.66
2023-03-11T12:43:40.986Z,98237.56
2023-03-11T12:46:13.354Z,98220.22
2023-03-11T12:48:49.673Z,98225.25
2023-03-11T12:51:37.358Z,98230.88
2023-03-11T12:54:35.799Z,98240.22
2023-03-11T12:57:18.131Z,98226.31
2023-03-11T13:00:30.185Z,98236.41
2023-03-11T13:03:29.589Z,98225.19
2023-03-11T13:06:26.634Z,98226.19
2023-03-11T13:08:59.017Z,98217.84
2023-03-11T13:11:47.237Z,98242.19
2023-03-11T13:14:35.829Z,98209.19
2023-03-11T13:17:30.794Z,98227.13
2023-03-11T13:19:58.835Z,98223.53
2023-03-11T13:22:40.845Z,98235.53
2023-03-11T13:25:37.501Z,98223.53
2023-03-11T13:28:33.472Z,98225.78
2023-03-11T13:31:44.464Z,98226.47
2023-03-11T13:34:37.143Z,98221.59
2023-03-11T13:37:36.727Z,98239.19
2023-03-11T13:40:29.508Z,98241.16
2023-03-11T13:43:03.877Z,98217.63
2023-03-11T13:45:36.997Z,98234.94
2023-03-11T13:48:17.034Z,98245.81
2023-03-11T13:50:51.282Z,98242.59
2023-03-11T13:53:25.994Z,98245.44
2023-03-11T13:55:53.066Z,98238.72
2023-03-11T13:58:28.258Z,98246.63
2023-03-11T14:01:01.229Z,98195.38
2023-03-11T14:03:42.180Z,98247.47
2023-03-11T14:06:18.780Z,98235.53
2023-03-11T14:08:57.661Z,98243.34
2023-03-11T14:11:29.507Z,98242.31
2023-03-11T14:13:56.641Z,98217.97
2023-03-11T14:16:35.965Z,98218.69
2023-03-11T14:19:15.624Z,98231.31
2023-03-11T14:21:48.600Z,98239.38
2023-03-11T14:24:31.747Z,98222.97
2023-03-11T14:27:02.776Z,98235.19
2023-03-11T14:29:32.588Z,98238.56
2023-03-11T14:31:59.482Z,98245.66
2023-03-11T14:34:28.974Z,98231.69
2023-03-11T14:37:03.965Z,98205.03
2023-03-11T14:39:39.983Z,98236.06
2023-03-11T14:42:31.782Z,98229.91
2023-03-11T14:45:18.618Z,98215.91
2023-03-11T14:47:56.497Z,98230.31
2023-03-11T14:50:27.242Z,98214.53
2023-03-11T14:53:25.314Z,98225.88
2023-03-11T14:56:00.160Z,98216.97
2023-03-11T14:58:36.892Z,98227.25
2023-03-11T15:01:17.731Z,98226.25
2023-03-11T15:04:06.428Z,98227.00
2023-03-11T15:06:35.194Z,98203.97
2023-03-11T15:09:08.590Z,98200.31
2023-03-11T15:12:28.425Z,98225.66
2023-03-11T15:14:55.253Z,98237.63
2023-03-11T15:17:35.370Z,98237.63
2023-03-11T15:20:07.493Z,98230.13
2023-03-11T15:22:39.454Z,98234.00
2023-03-11T15:25:19.326Z,98234.16
2023-03-11T15:27:46.700Z,98248.69
2023-03-11T15:30:32.109Z,98255.53
2023-03-11T15:32:59.302Z,98229.59
2023-03-11T15:35:29.327Z,98242.31
2023-03-11T15:38:21.375Z,98233.09
2023-03-11T15:41:02.934Z,98250.66
2023-03-11T15:43:34.247Z,98240.59
2023-03-11T15:46:02.965Z,98255.75
2023-03-11T15:48:31.208Z,98266.63
2023-03-11T15:51:00.572Z,98263.56
2023-03-11T15:53:30.179Z,98249.66
2023-03-11T15:56:13.479Z,98263.84
2023-03-11T15:58:40.387Z,98261.44
2023-03-11T16:01:07.652Z,98270.19
2023-03-11T16:03:34.547Z,98269.50
2023-03-11T16:06:01.387Z,98289.69
2023-03-11T16:08:28.263Z,98284.34
2023-03-11T16:10:55.354Z,98287.69
2023-03-11T16:13:22.185Z,98293.63
2023-03-11T16:15:49.138Z,98295.28
2023-03-11T16:18:16.079Z,98290.34
2023-03-11T16:20:47.118Z,98292.16
2023-03-11T16:23:27.296Z,98283.66
2023-03-11T16:25:59.116Z,98295.34
2023-03-11T16:28:25.967Z,98296.94
2023-03-11T16:30:52.989Z,98285.03
2023-03-11T16:33:19.972Z,98274.88
2023-03-11T16:35:47.257Z,98293.78
2023-03-11T16:38:14.744Z,98294.47
2023-03-11T16:40:41.571Z,98270.19
2023-03-11T16:43:12.715Z,98272.94
2023-03-11T16:45:40.098Z,98275.63
2023-03-11T16:48:07.260Z,98287.25
2023-03-11T16:50:36.972Z,98297.63
2023-03-11T16:53:04.949Z,98294.66
2023-03-11T16:55:32.047Z,98309.63
2023-03-11T16:57:59.035Z,98311.66
2023-03-11T17:00:26.266Z,98316.38
2023-03-11T17:02:53.211Z,98323.34
2023-03-11T17:05:20.437Z,98320.84
2023-03-11T17:07:47.360Z,98331.28
2023-03-11T17:10:14.565Z,98333.50
2023-03-11T17:12:41.480Z,98337.81
2023-03-11T17:15:08.906Z,98335.09
2023-03-11T17:17:36.397Z,98330.97
2023-03-11T17:20:04.099Z,98323.81
2023-03-11T17:22:32.458Z,98346.59
2023-03-11T17:24:59.348Z,98339.88
2023-03-11T17:27:32.016Z,98351.16
2023-03-11T17:30:00.403Z,98354.06
2023-03-11T17:32:28.367Z,98362.63
2023-03-11T17:34:55.489Z,98352.88
2023-03-11T17:37:22.737Z,98366.31
2023-03-11T17:39:49.654Z,98370.66
2023-03-11T17:42:16.512Z,98363.47
2023-03-11T17:44:51.508Z,98373.91
2023-03-11T17:47:19.844Z,98395.06
2023-03-11T17:49:48.655Z,98402.75
2023-03-11T17:52:15.451Z,98402.06
2023-03-11T17:54:42.378Z,98371.34
2023-03-11T17:57:09.165Z,98416.59
2023-03-11T17:59:35.999Z,98400.94
2023-03-11T18:02:03.268Z,98416.88
2023-03-11T18:04:30.213Z,98414.28
2023-03-11T18:06:57.100Z,98417.94
2023-03-11T18:09:24.206Z,98422.50
2023-03-11T18:11:51.068Z,98425.13
2023-03-11T18:14:17.872Z,98412.53
2023-03-11T18:16:44.765Z,98425.03
2023-03-11T18:19:11.631Z,98421.41
2023-03-11T18:21:38.539Z,98417.16
2023-03-11T18:24:06.049Z,98423.72
2023-03-11T18:26:34.019Z,98423.03
2023-03-11T18:29:01.322Z,98446.53
2023-03-11T18:31:30.588Z,98450.91
2023-03-11T18:34:03.891Z,98448.41
2023-03-11T18:36:34.423Z,98456.84
2023-03-11T18:39:02.191Z,98445.28
2023-03-11T18:41:33.503Z,98457.97
2023-03-11T18:44:01.338Z,98460.63
2023-03-11T18:46:31.656Z,98463.22
2023-03-11T18:49:00.225Z,98465.63
2023-03-11T18:51:29.812Z,98472.16
2023-03-11T18:53:56.865Z,98430.56
2023-03-11T18:56:23.855Z,98475.56
2023-03-11T18:58:50.764Z,98477.78
2023-03-11T19:01:20.683Z,98483.03
2023-03-11T19:03:56.900Z,98480.84
2023-03-11T19:06:25.449Z,98468.91
2023-03-11T19:08:53.099Z,98477.88
2023-03-11T19:11:22.928Z,98477.03
2023-03-11T19:13:49.953Z,98474.72
2023-03-11T19:16:21.022Z,98482.91
2023-03-11T19:18:48.376Z,98484.63
2023-03-11T19:21:16.490Z,98476.38
2023-03-11T19:23:44.338Z,98483.97
2023-03-11T19:26:11.559Z,98492.66
2023-03-11T19:28:38.564Z,98484.44
2023-03-11T19:31:05.830Z,98482.91
2023-03-11T19:33:33.290Z,98501.69
2023-03-11T19:36:04.593Z,98496.03
2023-03-11T19:38:32.080Z,98502.81
2023-03-11T19:41:05.248Z,98500.44
2023-03-11T19:43:33.425Z,98490.53
2023-03-11T19:46:00.430Z,98510.00
2023-03-11T19:48:27.560Z,98511.13
2023-03-11T19:50:54.814Z,98508.84
2023-03-11T19:53:23.180Z,98524.22
2023-03-11T19:55:56.532Z,98514.97
2023-03-11T19:58:29.494Z,98519.41
2023-03-11T20:00:58.650Z,98523.72
2023-03-11T20:03:26.472Z,98516.38
2023-03-11T20:05:56.588Z,98528.38
2023-03-11T20:08:25.165Z,98500.94
2023-03-11T20:10:53.337Z,98531.28
2023-03-11T20:13:22.105Z,98540.19
2023-03-11T20:15:50.104Z,98530.25
2023-03-11T20:18:18.042Z,98546.38
2023-03-11T20:20:46.785Z,98545.72
2023-03-11T20:23:13.999Z,98558.63
2023-03-11T20:25:41.927Z,98549.38
2023-03-11T20:28:09.341Z,98552.84
2023-03-11T20:30:38.660Z,98544.66
2023-03-11T20:33:06.942Z,98560.06
2023-03-11T20:35:34.133Z,98560.97
2023-03-11T20:38:02.752Z,98551.94
2023-03-11T20:40:30.160Z,98553.78
2023-03-11T20:42:57.020Z,98565.81
2023-03-11T20:45:24.042Z,98566.59
2023-03-11T20:47:53.528Z,98572.72
2023-03-11T20:50:22.101Z,98571.09
2023-03-11T20:52:50.124Z,98568.59
2023-03-11T20:55:17.345Z,98554.66
2023-03-11T20:57:44.299Z,98566.47
2023-03-11T21:00:13.253Z,98579.94
2023-03-11T21:02:41.949Z,98579.09
2023-03-11T21:05:10.516Z,98580.09
2023-03-11T21:07:37.884Z,98580.06
2023-03-11T21:10:08.861Z,98587.81
2023-03-11T21:12:35.751Z,98589.72
2023-03-11T21:15:03.870Z,98563.81
2023-03-11T21:17:30.816Z,98585.91
2023-03-11T21:19:57.688Z,98580.06
2023-03-11T21:22:24.576Z,98579.28
2023-03-11T21:24:53.032Z,98582.81
2023-03-11T21:27:26.052Z,98574.53
2023-03-11T21:29:57.300Z,98578.75
2023-03-11T21:32:26.271Z,98594.75
2023-03-11T21:35:00.876Z,98600.16
2023-03-11T21:37:28.892Z,98602.94
2023-03-11T21:39:56.340Z,98612.19
2023-03-11T21:42:23.581Z,98574.41
2023-03-11T21:44:51.494Z,98601.50
2023-03-11T21:47:19.344Z,98585.50
2023-03-11T21:49:46.263Z,98596.59
2023-03-11T21:52:13.372Z,98593.28
2023-03-11T21:54:40.371Z,98597.41
2023-03-11T21:57:07.238Z,98595.16
2023-03-11T21:59:34.215Z,98593.66
2023-03-11T22:02:03.198Z,98592.94
2023-03-11T22:04:31.688Z,98606.34
2023-03-11T22:06:58.991Z,98592.97
2023-03-11T22:09:26.286Z,98605.59
2023-03-11T22:11:53.831Z,98582.91
2023-03-11T22:14:20.844Z,98594.13
2023-03-11T22:16:47.784Z,98607.41
2023-03-11T22:19:14.865Z,98591.56
2023-03-11T22:21:42.108Z,98604.25
2023-03-11T22:24:09.156Z,98596.59
2023-03-11T22:26:36.030Z,98604.31
2023-03-11T22:29:04.046Z,98586.84
2023-03-11T22:31:31.357Z,98587.56
2023-03-11T22:33:58.404Z,98610.47
2023-03-11T22:36:25.421Z,98606.25
2023-03-11T22:38:52.288Z,98609.00
2023-03-11T22:41:20.280Z,98614.06
2023-03-11T22:43:47.371Z,98600.59
2023-03-11T22:46:14.675Z,98610.78
2023-03-11T22:48:41.866Z,98585.66
2023-03-11T22:51:08.769Z,98606.00
2023-03-11T22:53:35.653Z,98604.38
2023-03-11T22:56:11.531Z,98610.25
2023-03-11T22:58:38.648Z,98610.50
2023-03-11T23:01:06.272Z,98590.44
2023-03-11T23:03:34.724Z,98620.69
2023-03-11T23:06:05.206Z,98624.13
2023-03-11T23:08:32.510Z,98619.91
2023-03-11T23:11:04.792Z,98620.03
2023-03-11T23:13:32.530Z,98627.59
2023-03-11T23:16:05.964Z,98616.84
2023-03-11T23:18:33.782Z,98626.91
2023-03-11T23:21:00.690Z,98642.25
2023-03-11T23:23:27.600Z,98610.34
2023-03-11T23:25:54.551Z,98619.50
2023-03-11T23:28:21.768Z,98638.19
2023-03-11T23:30:48.734Z,98626.44
2023-03-11T23:33:15.533Z,98630.81
2023-03-11T23:35:42.858Z,98634.13
2023-03-11T23:38:10.537Z,98639.25
2023-03-11T23:40:40.209Z,98625.84
2023-03-11T23:43:07.109Z,98635.91
2023-03-11T23:45:33.906Z,98628.50
2023-03-11T23:48:00.733Z,98619.16
2023-03-11T23:50:27.602Z,98625.13
2023-03-11T23:52:54.400Z,98630.19
2023-03-11T23:55:21.246Z,98632.63
2023-03-11T23:57:48.154Z,98630.19
